Nearby METAR Reports

 

KDWH - Houston/Dw Hooks, Texas, USA
Distance from station: WNW 3mi, 6km
Updated: 05/25/2022 10:53am
Mostly cloudy
Mostly cloudy
 Wind from NW
Wind: NW 9 mph , 15 km/h
Temperature: 72°F , 22°C
Dew Point: 63°F , 17°C
Humidity: 73%
Barometer: 29.82 inHg , 1009.8 hPa
Clouds: Mostly cloudy
Visibility: 10 miles , 16 km
Cloud details: Mostly cloudy 1800 ft
2022/05/25 15:53 KDWH 251553Z 32008KT 290V360 10SM BKN018 22/17 A2982 RMK AO2 SLP095 T02220172
KIAH - Houston/Intnl, Texas, USA
Distance from station: ESE 9mi, 14km
Updated: 05/25/2022 10:53am
Overcast
Overcast
 Wind from NNW
Wind: NNW 10 mph , 17 km/h
Temperature: 72°F , 22°C
Dew Point: 63°F , 17°C
Humidity: 73%
Barometer: 29.82 inHg , 1009.8 hPa
Clouds: Overcast
Visibility: 10 miles , 16 km
Cloud details: Partly cloudy 1700 ft
Overcast 25000 ft
2022/05/25 15:53 KIAH 251553Z 33009KT 10SM SCT017 OVC250 22/17 A2982 RMK AO2 SLP099 T02170172
 
KCXO - Conroe, Texas, USA
Distance from station: NNE 21mi, 34km
Updated: 05/25/2022 11:03am
Partly cloudy
Partly cloudy
 Wind from WNW
Wind: WNW 8 mph , 13 km/h
Temperature: 72°F , 22°C
Dew Point: 63°F , 17°C
Humidity: 73%
Barometer: 29.83 inHg , 1010.2 hPa
Clouds: Partly cloudy
Visibility: 10 miles , 16 km
Cloud details: Partly cloudy 2000 ft
2022/05/25 16:03 KCXO 251603Z 30007KT 270V010 10SM SCT020 22/17 A2983 RMK AO2 T02170172
KMCJ - Houston/Univ, Texas, USA
Distance from station: SSE 24mi, 39km
Updated: 05/25/2022 11:15am
Partly cloudy
Partly cloudy
 Wind from NNW
Wind: NNW 10 mph , 17 km/h, Gust: 16 mph , 26 km/h
Temperature: 70°F , 21°C
Dew Point: 63°F , 17°C
Humidity: 78%
Barometer: 29.81 inHg , 1009.5 hPa
Clouds: Partly cloudy
Visibility: 10 miles , 16 km
Cloud details: Partly cloudy 1700 ft
2022/05/25 16:15 KMCJ 251615Z AUTO 34009G14KT 10SM SCT017 21/17 A2981 RMK A01
 
KTME - Houston Exec, Texas, USA
Distance from station: SW 30mi, 48km
Updated: 05/25/2022 11:15am
Few Clouds
Few Clouds
 Wind from NW
Wind: NW 8 mph , 13 km/h
Temperature: 73°F , 23°C
Dew Point: 63°F , 17°C
Humidity: 69%
Barometer: 29.84 inHg , 1010.5 hPa
Clouds: Few Clouds
Visibility: 8 miles , 13 km
Cloud details: Few Clouds 1900 ft
2022/05/25 16:15 KTME 251615Z AUTO 32007KT 8SM FEW019 23/17 A2984 RMK AO2
KHOU - Houston/Hobby, Texas, USA
Distance from station: SSE 32mi, 51km
Updated: 05/25/2022 10:53am
Overcast
Overcast
 Wind from N
Wind: N 12 mph , 19 km/h
Temperature: 73°F , 23°C
Dew Point: 64°F , 18°C
Humidity: 74%
Barometer: 29.81 inHg , 1009.5 hPa
Clouds: Overcast
Visibility: 10 miles , 16 km
Cloud details: Few Clouds 1500 ft
Overcast 25000 ft
2022/05/25 15:53 KHOU 251553Z 35010KT 10SM FEW015 OVC250 23/18 A2981 RMK AO2 SLP098 T02280183
 
KSGR - Houston/Sugar La, Texas, USA
Distance from station: SSW 32mi, 51km
Updated: 05/25/2022 10:53am
Mostly cloudy
Mostly cloudy
 Wind from NNW
Wind: NNW 10 mph , 17 km/h
Temperature: 72°F , 22°C
Dew Point: 63°F , 17°C
Humidity: 73%
Barometer: 29.82 inHg , 1009.8 hPa
Clouds: Mostly cloudy
Visibility: 10 miles , 16 km
Cloud details: Mostly cloudy 1500 ft
2022/05/25 15:53 KSGR 251553Z 34009KT 10SM BKN015 22/17 A2982 RMK AO2 SLP100 T02170172
K6R3 - Cleveland Muni, Texas, USA
Distance from station: NE 36mi, 58km
Updated: 05/25/2022 11:15am
Overcast
Overcast
 Wind from NW
Wind: NW 6 mph , 9 km/h
Temperature: 73°F , 23°C
Dew Point: 64°F , 18°C
Humidity: 74%
Barometer: 29.84 inHg , 1010.5 hPa
Clouds: Overcast
Visibility: 7 miles , 11 km
Cloud details: Overcast 1800 ft
2022/05/25 16:15 K6R3 251615Z AUTO 31005KT 7SM OVC018 23/18 A2984 RMK AO2 T02320178
 
KAXH - Houston/Southwst, Texas, USA
Distance from station: S 37mi, 60km
Updated: 05/25/2022 11:15am
Partly cloudy
Partly cloudy
 Wind from NNW
Wind: NNW 8 mph , 13 km/h
Temperature: 73°F , 23°C
Dew Point: 66°F , 19°C
Humidity: 78%
Barometer: 29.83 inHg , 1010.2 hPa
Clouds: Partly cloudy
Visibility: 10 miles , 16 km
Cloud details: Partly cloudy 1500 ft
2022/05/25 16:15 KAXH 251615Z AUTO 33007KT 10SM SCT015 23/19 A2983 RMK AO2 T02300194
KEFD - Houston/Ellingto, Texas, USA
Distance from station: SSE 37mi, 60km
Updated: 05/25/2022 10:54am
Few Clouds
Few Clouds
 Wind from NNW
Wind: NNW 8 mph , 13 km/h
Temperature: 75°F , 24°C
Dew Point: 64°F , 18°C
Humidity: 69%
Barometer: 29.80 inHg , 1009.1 hPa
Clouds: Few Clouds
Visibility: 10 miles , 16 km
Cloud details: Few Clouds 1500 ft
2022/05/25 15:54 KEFD 251554Z 33007KT 10SM FEW015 24/18 A2980
 
KLVJ - Houston, Texas, USA
Distance from station: SSE 40mi, 64km
Updated: 05/25/2022 10:53am
Clear
Clear
 Wind from N
Wind: N 10 mph , 17 km/h
Temperature: 73°F , 23°C
Dew Point: 63°F , 17°C
Humidity: 69%
Barometer: 29.81 inHg , 1009.5 hPa
Clouds: Clear
Visibility: 10 miles , 16 km
2022/05/25 15:53 KLVJ 251553Z AUTO 01009KT 10SM CLR 23/17 A2981 RMK AO2 SLP095 T02330172
KUTS - Huntsville, Texas, USA
Distance from station: N 48mi, 78km
Updated: 05/25/2022 10:53am
Clear
Clear
 Wind from W
Wind: W 8 mph , 13 km/h
Temperature: 73°F , 23°C
Dew Point: 61°F , 16°C
Humidity: 65%
Barometer: 29.83 inHg , 1010.2 hPa
Clouds: Clear
Visibility: 10 miles , 16 km
2022/05/25 15:53 KUTS 251553Z AUTO 27007KT 240V300 10SM CLR 23/16 A2983 RMK AO2 SLP097 T02330161